Time;durP1;ratioP1;P1;durP2;ratioP2;P2;SDS_P1;SDS_P2;PMS_P1;PMS_P2;Temp;Humidity;BMP_temperature;BMP_pressure;BME280_temperature;BME280_humidity;BME280_pressure;Samples;Min_cycle;Max_cycle;Signal;HPM_P1;HPM_P2
2021/12/23 14:07:47;;;;;;;73.57;32.73;;;;;;;;;;6306084;22;20055;-94
2021/12/23 14:10:29;;;;;;;74.25;34.58;;;;;;;;;;6312351;22;20398;-94
2021/12/23 14:13:11;;;;;;;72.57;34.38;;;;;;;;;;6333474;22;20104;-94
2021/12/23 14:34:53;;;;;;;71.18;32.85;;;;;;;;;;6317909;22;20011;-95
2021/12/23 14:38:20;;;;;;;69.80;34.40;;;;;;;;;;6335241;22;20051;-95
2021/12/23 14:41:29;;;;;;;69.13;33.78;;;;;;;;;;6295883;22;20030;-95
2021/12/23 14:44:14;;;;;;;67.82;33.95;;;;;;;;;;6334964;22;20015;-95
2021/12/23 14:47:11;;;;;;;69.20;34.30;;;;;;;;;;6335081;22;20003;-94
2021/12/23 14:50:37;;;;;;;69.03;34.63;;;;;;;;;;6336056;22;20061;-95
2021/12/23 14:53:16;;;;;;;67.72;34.17;;;;;;;;;;6334278;22;19999;-95
2021/12/23 14:56:04;;;;;;;73.65;34.78;;;;;;;;;;6313346;22;20045;-94
2021/12/23 14:59:00;;;;;;;73.30;35.88;;;;;;;;;;6336186;22;20007;-95
2021/12/23 15:06:02;;;;;;;67.82;34.00;;;;;;;;;;6337670;22;19986;-94
2021/12/23 15:08:53;;;;;;;73.00;35.80;;;;;;;;;;6335044;22;20007;-95
2021/12/23 15:11:57;;;;;;;74.03;37.63;;;;;;;;;;6335201;22;20007;-95
2021/12/23 15:17:18;;;;;;;74.63;36.30;;;;;;;;;;6324412;22;20055;-95
2021/12/23 15:20:41;;;;;;;72.35;36.67;;;;;;;;;;6283870;22;20007;-94
2021/12/23 15:24:00;;;;;;;66.95;32.85;;;;;;;;;;6283494;22;20049;-95
2021/12/23 15:27:12;;;;;;;76.00;36.50;;;;;;;;;;6306828;22;20026;-95
2021/12/23 15:30:30;;;;;;;71.35;33.50;;;;;;;;;;6306844;22;20011;-95
2021/12/23 15:33:51;;;;;;;69.25;34.17;;;;;;;;;;6304886;22;20015;-95
2021/12/23 15:36:38;;;;;;;77.80;37.05;;;;;;;;;;6283792;22;20048;-95
2021/12/23 15:39:51;;;;;;;75.28;35.65;;;;;;;;;;6306258;22;19999;-95
2021/12/23 15:43:00;;;;;;;71.88;35.55;;;;;;;;;;6304196;22;20007;-95
2021/12/23 16:09:55;;;;;;;85.63;35.60;;;;;;;;;;6306282;22;20055;-95
2021/12/23 16:13:10;;;;;;;79.28;36.38;;;;;;;;;;6306297;22;20004;-95
2021/12/23 16:16:12;;;;;;;75.15;34.72;;;;;;;;;;6295999;22;19999;-95
2021/12/23 16:19:12;;;;;;;78.53;34.63;;;;;;;;;;6281775;22;20027;-95
2021/12/23 16:22:40;;;;;;;73.80;33.97;;;;;;;;;;6304891;22;20067;-96
2021/12/23 16:25:58;;;;;;;73.85;36.33;;;;;;;;;;6305651;22;20011;-95
2021/12/23 16:29:01;;;;;;;80.30;36.40;;;;;;;;;;6283319;22;20004;-95
2021/12/23 16:31:43;;;;;;;80.35;36.08;;;;;;;;;;6306096;22;20003;-94
2021/12/23 16:34:45;;;;;;;67.47;33.60;;;;;;;;;;6305489;22;20015;-95
2021/12/23 16:38:14;;;;;;;78.72;35.10;;;;;;;;;;6305728;22;20011;-94
2021/12/23 16:41:15;;;;;;;69.07;33.67;;;;;;;;;;6296403;22;20000;-95
2021/12/23 16:44:15;;;;;;;72.95;34.60;;;;;;;;;;6283455;22;20000;-94
2021/12/23 16:47:17;;;;;;;77.82;36.50;;;;;;;;;;6306171;22;20046;-95
2021/12/23 16:49:57;;;;;;;76.00;35.33;;;;;;;;;;6282425;22;20034;-96
2021/12/23 16:52:47;;;;;;;76.25;34.90;;;;;;;;;;6283618;22;20039;-96
2021/12/23 17:44:36;;;;;;;76.85;36.00;;;;;;;;;;6331045;22;20001;-95
2021/12/23 17:47:32;;;;;;;76.57;34.22;;;;;;;;;;6305769;22;20014;-94
2021/12/23 17:51:11;;;;;;;80.20;36.25;;;;;;;;;;6242635;22;20022;-96
2021/12/23 17:54:41;;;;;;;67.05;31.63;;;;;;;;;;6208768;23;20021;-96
2021/12/23 17:58:08;;;;;;;76.03;34.17;;;;;;;;;;6055361;23;20056;-96
2021/12/23 18:01:38;;;;;;;74.03;34.47;;;;;;;;;;5993213;23;20008;-95
2021/12/23 18:04:58;;;;;;;71.53;34.72;;;;;;;;;;5991437;23;20004;-96
2021/12/23 18:08:29;;;;;;;75.97;34.53;;;;;;;;;;6035544;23;20032;-96
2021/12/23 18:11:44;;;;;;;74.00;36.20;;;;;;;;;;5934326;23;20005;-96
2021/12/23 18:27:22;;;;;;;88.72;39.30;;;;;;;;;;6322017;22;20034;-95
